<?xml version="1.0" encoding="UTF-8" standalone="no" ?>
<gpx xmlns="http://www.topografix.com/GPX/1/1" xmlns:xsi="http://www.w3.org/2001/XMLSchema-instance" xsi:schemaLocation="http://www.topografix.com/GPX/1/1 http://www.topografix.com/GPX/1/1/gpx.xsd" version="1.1" creator="VisuGPX - https://www.visugpx.com">
  <metadata>
    <name>LogonnaDoualas_BindyMoulinMer_12.3km</name>
    <desc><![CDATA[gnerando idor:8144334]]></desc>
  </metadata>
  <trk>
    <name><![CDATA[Logonna_BindyMoulinMer_12.3km-8144334]]></name>
    <extensions>
      <line xmlns="http://www.topografix.com/GPX/gpx_style/0/2">
        <color>0000FF</color>
        <width>4</width>
      </line>
    </extensions>
    <trkseg>
      <trkpt lat="48.32056" lon="-4.29889">
        <ele>44</ele>
        <time>2023-11-05T10:52:44Z</time>
      </trkpt>
      <trkpt lat="48.3193" lon="-4.29956">
        <ele>37</ele>
        <time>2023-11-05T10:55:42Z</time>
      </trkpt>
      <trkpt lat="48.31736" lon="-4.29896">
        <ele>32</ele>
        <time>2023-11-05T11:00:07Z</time>
      </trkpt>
      <trkpt lat="48.31574" lon="-4.29938">
        <ele>29</ele>
        <time>2023-11-05T11:03:46Z</time>
      </trkpt>
      <trkpt lat="48.31511" lon="-4.29883">
        <ele>29</ele>
        <time>2023-11-05T11:05:23Z</time>
      </trkpt>
      <trkpt lat="48.31611" lon="-4.2975">
        <ele>33</ele>
        <time>2023-11-05T11:08:21Z</time>
      </trkpt>
      <trkpt lat="48.31599" lon="-4.29638">
        <ele>32</ele>
        <time>2023-11-05T11:10:02Z</time>
      </trkpt>
      <trkpt lat="48.31636" lon="-4.29574">
        <ele>30</ele>
        <time>2023-11-05T11:11:17Z</time>
      </trkpt>
      <trkpt lat="48.31614" lon="-4.29514">
        <ele>26</ele>
        <time>2023-11-05T11:12:18Z</time>
      </trkpt>
      <trkpt lat="48.31668" lon="-4.29411">
        <ele>26</ele>
        <time>2023-11-05T11:14:15Z</time>
      </trkpt>
      <trkpt lat="48.31739" lon="-4.29329">
        <ele>28</ele>
        <time>2023-11-05T11:16:14Z</time>
      </trkpt>
      <trkpt lat="48.31642" lon="-4.29239">
        <ele>20</ele>
        <time>2023-11-05T11:18:46Z</time>
      </trkpt>
      <trkpt lat="48.31594" lon="-4.2914">
        <ele>16</ele>
        <time>2023-11-05T11:20:35Z</time>
      </trkpt>
      <trkpt lat="48.31625" lon="-4.28947">
        <ele>11</ele>
        <time>2023-11-05T11:23:31Z</time>
      </trkpt>
      <trkpt lat="48.31577" lon="-4.28681">
        <ele>6</ele>
        <time>2023-11-05T11:27:36Z</time>
      </trkpt>
      <trkpt lat="48.31491" lon="-4.28707">
        <ele>9</ele>
        <time>2023-11-05T11:29:33Z</time>
      </trkpt>
      <trkpt lat="48.31425" lon="-4.28814">
        <ele>11</ele>
        <time>2023-11-05T11:31:42Z</time>
      </trkpt>
      <trkpt lat="48.31311" lon="-4.28934">
        <ele>10</ele>
        <time>2023-11-05T11:34:48Z</time>
      </trkpt>
      <trkpt lat="48.31168" lon="-4.29282">
        <ele>7</ele>
        <time>2023-11-05T11:40:51Z</time>
      </trkpt>
      <trkpt lat="48.31194" lon="-4.29458">
        <ele>11</ele>
        <time>2023-11-05T11:43:31Z</time>
      </trkpt>
      <trkpt lat="48.31245" lon="-4.29552">
        <ele>13</ele>
        <time>2023-11-05T11:45:19Z</time>
      </trkpt>
      <trkpt lat="48.31234" lon="-4.29732">
        <ele>8</ele>
        <time>2023-11-05T11:47:59Z</time>
      </trkpt>
      <trkpt lat="48.31334" lon="-4.2984">
        <ele>19</ele>
        <time>2023-11-05T11:50:43Z</time>
      </trkpt>
      <trkpt lat="48.31371" lon="-4.30033">
        <ele>13</ele>
        <time>2023-11-05T11:53:42Z</time>
      </trkpt>
      <trkpt lat="48.31348" lon="-4.30136">
        <ele>8</ele>
        <time>2023-11-05T11:55:18Z</time>
      </trkpt>
      <trkpt lat="48.31405" lon="-4.30316">
        <ele>15</ele>
        <time>2023-11-05T11:58:15Z</time>
      </trkpt>
      <trkpt lat="48.31471" lon="-4.30458">
        <ele>22</ele>
        <time>2023-11-05T12:00:49Z</time>
      </trkpt>
      <trkpt lat="48.31471" lon="-4.30591">
        <ele>12</ele>
        <time>2023-11-05T12:02:47Z</time>
      </trkpt>
      <trkpt lat="48.31659" lon="-4.30737">
        <ele>7</ele>
        <time>2023-11-05T12:07:29Z</time>
      </trkpt>
      <trkpt lat="48.31722" lon="-4.30818">
        <ele>4</ele>
        <time>2023-11-05T12:09:20Z</time>
      </trkpt>
      <trkpt lat="48.31791" lon="-4.30664">
        <ele>11</ele>
        <time>2023-11-05T12:12:05Z</time>
      </trkpt>
      <trkpt lat="48.31885" lon="-4.30685">
        <ele>14</ele>
        <time>2023-11-05T12:14:11Z</time>
      </trkpt>
      <trkpt lat="48.31756" lon="-4.30926">
        <ele>5</ele>
        <time>2023-11-05T12:18:46Z</time>
      </trkpt>
      <trkpt lat="48.31711" lon="-4.31174">
        <ele>8</ele>
        <time>2023-11-05T12:22:34Z</time>
      </trkpt>
      <trkpt lat="48.31602" lon="-4.3105">
        <ele>8</ele>
        <time>2023-11-05T12:25:36Z</time>
      </trkpt>
      <trkpt lat="48.31548" lon="-4.30908">
        <ele>7</ele>
        <time>2023-11-05T12:28:02Z</time>
      </trkpt>
      <trkpt lat="48.31459" lon="-4.30904">
        <ele>5</ele>
        <time>2023-11-05T12:30:00Z</time>
      </trkpt>
      <trkpt lat="48.31465" lon="-4.31213">
        <ele>6</ele>
        <time>2023-11-05T12:34:35Z</time>
      </trkpt>
      <trkpt lat="48.31608" lon="-4.31428">
        <ele>5</ele>
        <time>2023-11-05T12:39:05Z</time>
      </trkpt>
      <trkpt lat="48.31568" lon="-4.31522">
        <ele>9</ele>
        <time>2023-11-05T12:40:44Z</time>
      </trkpt>
      <trkpt lat="48.31457" lon="-4.31775">
        <ele>5</ele>
        <time>2023-11-05T12:45:13Z</time>
      </trkpt>
      <trkpt lat="48.31582" lon="-4.32007">
        <ele>17</ele>
        <time>2023-11-05T12:49:38Z</time>
      </trkpt>
      <trkpt lat="48.31562" lon="-4.32329">
        <ele>15</ele>
        <time>2023-11-05T12:54:25Z</time>
      </trkpt>
      <trkpt lat="48.31596" lon="-4.32496">
        <ele>17</ele>
        <time>2023-11-05T12:57:00Z</time>
      </trkpt>
      <trkpt lat="48.31534" lon="-4.32689">
        <ele>10</ele>
        <time>2023-11-05T13:00:10Z</time>
      </trkpt>
      <trkpt lat="48.31511" lon="-4.32938">
        <ele>12</ele>
        <time>2023-11-05T13:03:53Z</time>
      </trkpt>
      <trkpt lat="48.31577" lon="-4.32994">
        <ele>21</ele>
        <time>2023-11-05T13:05:34Z</time>
      </trkpt>
      <trkpt lat="48.31508" lon="-4.33161">
        <ele>14</ele>
        <time>2023-11-05T13:08:29Z</time>
      </trkpt>
      <trkpt lat="48.31531" lon="-4.33419">
        <ele>6</ele>
        <time>2023-11-05T13:12:20Z</time>
      </trkpt>
      <trkpt lat="48.31482" lon="-4.33633">
        <ele>3</ele>
        <time>2023-11-05T13:15:40Z</time>
      </trkpt>
      <trkpt lat="48.31537" lon="-4.33651">
        <ele>3</ele>
        <time>2023-11-05T13:16:55Z</time>
      </trkpt>
      <trkpt lat="48.31599" lon="-4.33518">
        <ele>6</ele>
        <time>2023-11-05T13:19:20Z</time>
      </trkpt>
      <trkpt lat="48.31665" lon="-4.33612">
        <ele>2</ele>
        <time>2023-11-05T13:21:21Z</time>
      </trkpt>
      <trkpt lat="48.31614" lon="-4.33488">
        <ele>5</ele>
        <time>2023-11-05T13:23:30Z</time>
      </trkpt>
      <trkpt lat="48.31682" lon="-4.33273">
        <ele>16</ele>
        <time>2023-11-05T13:27:02Z</time>
      </trkpt>
      <trkpt lat="48.31742" lon="-4.33166">
        <ele>18</ele>
        <time>2023-11-05T13:29:06Z</time>
      </trkpt>
      <trkpt lat="48.31842" lon="-4.33063">
        <ele>11</ele>
        <time>2023-11-05T13:31:48Z</time>
      </trkpt>
      <trkpt lat="48.31879" lon="-4.32973">
        <ele>13</ele>
        <time>2023-11-05T13:33:21Z</time>
      </trkpt>
      <trkpt lat="48.31982" lon="-4.32947">
        <ele>5</ele>
        <time>2023-11-05T13:35:41Z</time>
      </trkpt>
      <trkpt lat="48.32053" lon="-4.32917">
        <ele>2</ele>
        <time>2023-11-05T13:37:19Z</time>
      </trkpt>
      <trkpt lat="48.31967" lon="-4.32852">
        <ele>6</ele>
        <time>2023-11-05T13:39:28Z</time>
      </trkpt>
      <trkpt lat="48.31945" lon="-4.32707">
        <ele>10</ele>
        <time>2023-11-05T13:41:40Z</time>
      </trkpt>
      <trkpt lat="48.3199" lon="-4.32578">
        <ele>8</ele>
        <time>2023-11-05T13:43:49Z</time>
      </trkpt>
      <trkpt lat="48.32073" lon="-4.32509">
        <ele>6</ele>
        <time>2023-11-05T13:45:55Z</time>
      </trkpt>
      <trkpt lat="48.3211" lon="-4.32488">
        <ele>5</ele>
        <time>2023-11-05T13:46:48Z</time>
      </trkpt>
      <trkpt lat="48.32259" lon="-4.32509">
        <ele>4</ele>
        <time>2023-11-05T13:50:08Z</time>
      </trkpt>
      <trkpt lat="48.32338" lon="-4.3241">
        <ele>4</ele>
        <time>2023-11-05T13:52:25Z</time>
      </trkpt>
      <trkpt lat="48.32244" lon="-4.32204">
        <ele>5</ele>
        <time>2023-11-05T13:56:07Z</time>
      </trkpt>
      <trkpt lat="48.3221" lon="-4.31895">
        <ele>6</ele>
        <time>2023-11-05T14:00:45Z</time>
      </trkpt>
      <trkpt lat="48.32381" lon="-4.3178">
        <ele>3</ele>
        <time>2023-11-05T14:04:55Z</time>
      </trkpt>
      <trkpt lat="48.32518" lon="-4.31664">
        <ele>6</ele>
        <time>2023-11-05T14:08:25Z</time>
      </trkpt>
      <trkpt lat="48.32507" lon="-4.31582">
        <ele>8</ele>
        <time>2023-11-05T14:09:39Z</time>
      </trkpt>
      <trkpt lat="48.32447" lon="-4.31436">
        <ele>13</ele>
        <time>2023-11-05T14:12:11Z</time>
      </trkpt>
      <trkpt lat="48.32427" lon="-4.3129">
        <ele>24</ele>
        <time>2023-11-05T14:14:23Z</time>
      </trkpt>
      <trkpt lat="48.32358" lon="-4.31282">
        <ele>24</ele>
        <time>2023-11-05T14:15:56Z</time>
      </trkpt>
      <trkpt lat="48.32299" lon="-4.31192">
        <ele>28</ele>
        <time>2023-11-05T14:17:48Z</time>
      </trkpt>
      <trkpt lat="48.32147" lon="-4.31153">
        <ele>25</ele>
        <time>2023-11-05T14:21:14Z</time>
      </trkpt>
      <trkpt lat="48.32065" lon="-4.31299">
        <ele>24</ele>
        <time>2023-11-05T14:24:03Z</time>
      </trkpt>
      <trkpt lat="48.31848" lon="-4.3129">
        <ele>19</ele>
        <time>2023-11-05T14:28:53Z</time>
      </trkpt>
      <trkpt lat="48.31702" lon="-4.3117">
        <ele>8</ele>
        <time>2023-11-05T14:32:35Z</time>
      </trkpt>
      <trkpt lat="48.31756" lon="-4.30891">
        <ele>4</ele>
        <time>2023-11-05T14:36:53Z</time>
      </trkpt>
      <trkpt lat="48.31882" lon="-4.30685">
        <ele>14</ele>
        <time>2023-11-05T14:41:01Z</time>
      </trkpt>
      <trkpt lat="48.31811" lon="-4.30363">
        <ele>20</ele>
        <time>2023-11-05T14:46:02Z</time>
      </trkpt>
      <trkpt lat="48.31899" lon="-4.30127">
        <ele>28</ele>
        <time>2023-11-05T14:50:02Z</time>
      </trkpt>
      <trkpt lat="48.31999" lon="-4.30179">
        <ele>34</ele>
        <time>2023-11-05T14:52:24Z</time>
      </trkpt>
      <trkpt lat="48.32076" lon="-4.30136">
        <ele>36</ele>
        <time>2023-11-05T14:54:13Z</time>
      </trkpt>
      <trkpt lat="48.32053" lon="-4.29891">
        <ele>44</ele>
        <time>2023-11-05T14:57:53Z</time>
      </trkpt>
    </trkseg>
  </trk>
</gpx>